Aérodrome :
LOGIN :

S'inscrire | Disclaimer

   EN    FR    IT 

 










Légende :    VFR   VFR Marginal   IFR   IFR Intensif   IFR Très Intensif
Visi : 
Plafond : 
>= 8 km
>= 3000ft
5 à 8 km
1000 à 3000 ft
1500m à 5 km
500 à 1000 ft
800 à 1500m
200 à 500 ft
< 800m
< 200 ft
Symboles :   Orages  Brouillard  Fortes neiges  Fortes précipitations  Vent > 20 kt
SIGMETs :   Divers  Orages  Givrage  Turbulence  Onde Orograph.  Cendres Volcan.







- Altitude de l'aérodrome : 30 ft
- Code IATA : CFN


EIDL - Donegal

DERNIER METAR :
  • 201300Z 23011KT 6000 -RA FEW006 BKN014 OVC022 10/10 Q1005

METARs EXPIRÉS :
  • 201230Z 23013KT 8000 -RA SCT008 BKN021 OVC025 10/09 Q1005
  • 201200Z 22016KT 9999 -RA SCT021 SCT025 OVC032 10/09 Q1005
  • 201130Z 22016KT 9999 -RA FEW008 OVC029 10/09 Q1004
  • 201030Z 22018KT 9999 BKN006 BKN032 OVC048 10/09 Q1003

TAF TAF EIDL
Valide du 20 à 12h jusqu'au 20 à 21h UTC


201100Z 2012/2021 21017KT 9999 BKN020
TEMPO 2012/2014 20020G30KT 4000 -RADZ BKN007
BECMG 2015/2018 18012KT
Pas de NOTAMs connus pour ce terrain.



MET'MAP, la Météo Aéronautique d'un coup d'oeil ! - Copyright ORBIFLY Décembre 2007 - Disclaimer

ORBIFLY MET'MAP TEAM :

Programmation & Développement : Alexandra Zaïnal
Conception & Développement : Baudouin d'Aumeries
Co-Programmation & Développement : Marc-Olivier Méhu
Soutien technique & logistique : Manuel Goepfert

Contact : metmap@orbifly.com




SOURCES & CREDITS :

   NOAA